createdAt,value
2023-05-09T00:01:44.179Z,7.60
2023-05-09T00:04:13.806Z,7.10
2023-05-09T00:06:43.577Z,7.20
2023-05-09T00:09:14.614Z,6.43
2023-05-09T00:11:43.899Z,5.83
2023-05-09T00:14:14.543Z,7.60
2023-05-09T00:16:44.916Z,6.97
2023-05-09T00:19:15.105Z,7.13
2023-05-09T00:21:44.850Z,6.63
2023-05-09T00:24:15.964Z,6.50
2023-05-09T00:26:45.564Z,7.10
2023-05-09T00:29:14.977Z,7.30
2023-05-09T00:31:44.641Z,7.00
2023-05-09T00:34:14.077Z,6.50
2023-05-09T00:36:43.582Z,7.97
2023-05-09T00:39:13.798Z,7.90
2023-05-09T00:41:45.771Z,7.83
2023-05-09T00:44:15.579Z,7.00
2023-05-09T00:46:45.494Z,7.30
2023-05-09T00:49:15.201Z,7.30
2023-05-09T00:51:45.119Z,7.10
2023-05-09T00:54:15.654Z,6.80
2023-05-09T00:56:47.311Z,6.93
2023-05-09T00:59:18.654Z,6.87
2023-05-09T01:01:48.187Z,7.40
2023-05-09T01:04:17.951Z,6.70
2023-05-09T01:06:57.718Z,6.87
2023-05-09T01:09:34.473Z,7.43
2023-05-09T01:12:15.464Z,8.47
2023-05-09T01:14:55.607Z,7.90
2023-05-09T01:17:34.048Z,7.10
2023-05-09T01:20:12.429Z,8.10
2023-05-09T01:22:48.805Z,7.77
2023-05-09T01:25:46.256Z,7.53
2023-05-09T01:28:31.748Z,7.97
2023-05-09T01:31:04.836Z,8.37
2023-05-09T01:33:38.331Z,8.30
2023-05-09T01:36:14.277Z,7.73
2023-05-09T01:38:46.145Z,7.70
2023-05-09T01:41:19.950Z,8.03
2023-05-09T01:43:52.571Z,8.53
2023-05-09T01:46:24.927Z,8.63
2023-05-09T01:48:56.656Z,7.40
2023-05-09T01:51:28.093Z,7.43
2023-05-09T01:54:00.377Z,8.60
2023-05-09T01:56:31.508Z,8.77
2023-05-09T01:59:02.248Z,8.33
2023-05-09T02:01:34.328Z,8.90
2023-05-09T02:04:06.473Z,9.77
2023-05-09T02:06:37.931Z,8.30
2023-05-09T02:09:07.849Z,8.50
2023-05-09T02:11:37.659Z,8.23
2023-05-09T02:14:07.762Z,9.50
2023-05-09T02:16:39.972Z,9.30
2023-05-09T02:19:09.636Z,9.80
2023-05-09T02:21:39.262Z,10.13
2023-05-09T02:24:09.579Z,9.60
2023-05-09T02:26:39.694Z,10.37
2023-05-09T02:29:09.702Z,8.90
2023-05-09T02:31:43.030Z,9.47
2023-05-09T02:34:14.058Z,8.80
2023-05-09T02:36:44.272Z,8.93
2023-05-09T02:39:14.069Z,9.57
2023-05-09T02:41:51.253Z,9.47
2023-05-09T02:44:20.596Z,10.63
2023-05-09T02:46:51.707Z,10.53
2023-05-09T02:49:31.628Z,11.10
2023-05-09T02:52:01.868Z,9.40
2023-05-09T02:54:31.498Z,9.67
2023-05-09T02:57:01.105Z,9.80
2023-05-09T02:59:31.110Z,10.83
2023-05-09T03:02:02.139Z,9.63
2023-05-09T03:04:31.761Z,9.73
2023-05-09T03:07:01.585Z,9.43
2023-05-09T03:09:31.478Z,10.47
2023-05-09T03:12:00.988Z,9.77
2023-05-09T03:14:30.490Z,10.43
2023-05-09T03:17:01.641Z,9.30
2023-05-09T03:19:31.040Z,9.03
2023-05-09T03:22:00.743Z,10.20
2023-05-09T03:24:30.135Z,9.57
2023-05-09T03:26:59.653Z,10.13
2023-05-09T03:29:29.556Z,10.63
2023-05-09T03:31:59.051Z,10.07
2023-05-09T03:34:30.024Z,9.73
2023-05-09T03:36:59.615Z,10.33
2023-05-09T03:39:29.216Z,9.80
2023-05-09T03:41:58.639Z,10.53
2023-05-09T03:44:28.647Z,9.90
2023-05-09T03:46:58.184Z,10.60
2023-05-09T03:49:39.814Z,11.03
2023-05-09T03:52:15.690Z,11.50
2023-05-09T03:54:48.660Z,11.33
2023-05-09T03:57:17.973Z,10.50
2023-05-09T03:59:47.587Z,10.77
2023-05-09T04:02:17.117Z,10.90
2023-05-09T04:04:49.042Z,11.63
2023-05-09T04:07:18.645Z,11.63
2023-05-09T04:09:48.391Z,11.10
2023-05-09T04:12:18.057Z,10.53
2023-05-09T04:14:49.012Z,13.60
2023-05-09T04:17:18.722Z,10.57
2023-05-09T04:19:49.772Z,10.60
2023-05-09T04:22:19.483Z,10.20
2023-05-09T04:24:49.286Z,10.13
2023-05-09T04:27:18.806Z,9.67
2023-05-09T04:29:49.719Z,8.97
2023-05-09T04:32:22.311Z,10.40
2023-05-09T04:34:53.460Z,9.80
2023-05-09T04:37:23.563Z,9.10
2023-05-09T04:39:53.182Z,8.80
2023-05-09T04:42:22.574Z,9.17
2023-05-09T04:44:52.400Z,9.50
2023-05-09T04:47:21.885Z,9.00
2023-05-09T04:49:53.150Z,8.10
2023-05-09T04:52:22.650Z,8.63
2023-05-09T04:54:52.766Z,9.70
2023-05-09T04:57:22.373Z,8.67
2023-05-09T04:59:53.303Z,8.80
2023-05-09T05:02:23.142Z,8.23
2023-05-09T05:05:02.969Z,7.53
2023-05-09T05:07:39.925Z,8.60
2023-05-09T05:10:10.471Z,7.60
2023-05-09T05:12:40.130Z,9.00
2023-05-09T05:15:10.922Z,8.80
2023-05-09T05:17:40.666Z,8.47
2023-05-09T05:20:12.370Z,8.10
2023-05-09T05:22:41.992Z,8.50
2023-05-09T05:25:12.342Z,8.80
2023-05-09T05:27:42.025Z,8.37
2023-05-09T05:30:12.863Z,7.20
2023-05-09T05:32:42.369Z,8.27
2023-05-09T05:35:14.183Z,8.60
2023-05-09T05:37:44.338Z,8.50
2023-05-09T05:40:14.339Z,9.40
2023-05-09T05:42:44.869Z,8.87
2023-05-09T05:45:15.164Z,7.67
2023-05-09T05:47:44.831Z,8.20
2023-05-09T05:50:16.576Z,8.47
2023-05-09T05:52:46.187Z,9.33
2023-05-09T05:55:15.982Z,8.00
2023-05-09T05:57:48.035Z,7.87
2023-05-09T06:00:18.891Z,8.23
2023-05-09T06:02:50.470Z,8.10
2023-05-09T06:05:22.111Z,8.20
2023-05-09T06:07:54.573Z,7.73
2023-05-09T06:10:26.429Z,7.97
2023-05-09T06:12:56.750Z,7.40
2023-05-09T06:15:26.235Z,8.33
2023-05-09T06:17:56.405Z,8.30
2023-05-09T06:20:27.986Z,7.67
2023-05-09T06:22:57.535Z,7.50
2023-05-09T06:25:26.832Z,9.40
2023-05-09T06:27:56.112Z,7.33
2023-05-09T06:30:28.110Z,6.87
2023-05-09T06:32:58.502Z,7.07
2023-05-09T06:35:29.977Z,6.60
2023-05-09T06:37:59.577Z,6.73
2023-05-09T06:40:29.809Z,5.93
2023-05-09T06:42:59.597Z,6.23
2023-05-09T06:45:29.224Z,6.80
2023-05-09T06:47:58.959Z,6.33
2023-05-09T06:50:31.456Z,6.03
2023-05-09T06:53:02.341Z,5.57
2023-05-09T06:55:33.071Z,6.03
2023-05-09T06:58:02.573Z,6.00
2023-05-09T07:00:32.080Z,5.67
2023-05-09T07:03:01.653Z,5.80
2023-05-09T07:05:32.940Z,4.90
2023-05-09T07:08:02.750Z,6.03
2023-05-09T07:10:32.467Z,4.90
2023-05-09T07:13:01.986Z,5.70
2023-05-09T07:15:41.387Z,4.70
2023-05-09T07:18:11.383Z,5.07
2023-05-09T07:20:42.670Z,21.27
2023-05-09T07:23:12.354Z,6.67
2023-05-09T07:25:42.182Z,5.10
2023-05-09T07:28:12.974Z,4.50
2023-05-09T07:30:44.278Z,3.97
2023-05-09T07:33:14.033Z,3.87
2023-05-09T07:35:45.750Z,4.20
2023-05-09T07:38:15.465Z,4.10
2023-05-09T07:40:45.268Z,4.47
2023-05-09T07:43:14.999Z,4.50
2023-05-09T07:45:44.410Z,4.20
2023-05-09T07:48:14.071Z,4.40
2023-05-09T07:50:45.136Z,5.70
2023-05-09T07:53:14.923Z,3.90
2023-05-09T07:55:45.495Z,3.83
2023-05-09T07:58:15.367Z,3.97
2023-05-09T08:00:45.201Z,4.30
2023-05-09T08:03:15.270Z,3.80
2023-05-09T08:05:46.842Z,4.10
2023-05-09T08:08:16.345Z,4.33
2023-05-09T08:10:46.900Z,3.70
2023-05-09T08:13:16.952Z,3.63
2023-05-09T08:15:46.563Z,3.73
2023-05-09T08:18:16.541Z,3.47
2023-05-09T08:20:47.571Z,3.60
2023-05-09T08:23:16.859Z,3.73
2023-05-09T08:25:46.548Z,3.40
2023-05-09T08:28:16.187Z,3.90
2023-05-09T08:30:45.727Z,3.40
2023-05-09T08:33:15.192Z,4.07
2023-05-09T08:35:46.131Z,3.70
2023-05-09T08:38:15.645Z,3.57
2023-05-09T08:40:45.237Z,3.73
2023-05-09T08:43:15.462Z,3.57
2023-05-09T08:45:49.376Z,3.30
2023-05-09T08:48:19.811Z,3.67
2023-05-09T08:50:51.371Z,3.73
2023-05-09T08:53:22.304Z,3.00
2023-05-09T08:55:53.001Z,3.60
2023-05-09T08:58:23.349Z,3.70
2023-05-09T09:00:52.964Z,3.00
2023-05-09T09:03:23.067Z,3.37
2023-05-09T09:05:55.505Z,2.88
2023-05-09T09:08:25.881Z,3.47
2023-05-09T09:10:55.895Z,3.05
2023-05-09T09:13:26.045Z,3.15
2023-05-09T09:15:56.532Z,3.20
2023-05-09T09:18:31.383Z,2.92
2023-05-09T09:21:07.633Z,3.35
2023-05-09T09:23:39.077Z,3.83
2023-05-09T09:26:08.586Z,3.40
2023-05-09T09:28:38.085Z,3.63
2023-05-09T09:31:22.753Z,3.20
2023-05-09T09:33:52.392Z,3.17
2023-05-09T09:36:31.089Z,3.33
2023-05-09T09:39:02.837Z,3.85
2023-05-09T09:41:36.553Z,3.35
2023-05-09T09:44:10.472Z,3.28
2023-05-09T09:46:47.359Z,2.88
2023-05-09T09:49:18.796Z,3.13
2023-05-09T09:51:53.428Z,5.43
2023-05-09T09:54:23.931Z,3.25
2023-05-09T09:56:55.427Z,3.40
2023-05-09T09:59:27.671Z,3.05
2023-05-09T10:02:04.046Z,2.70
2023-05-09T10:04:37.756Z,3.97
2023-05-09T10:07:14.895Z,3.20
2023-05-09T10:09:52.782Z,2.83
2023-05-09T10:12:24.161Z,4.63
2023-05-09T10:14:53.859Z,3.10
2023-05-09T10:17:25.593Z,3.10
2023-05-09T10:19:59.733Z,2.88
2023-05-09T10:22:34.477Z,3.00
2023-05-09T10:25:08.184Z,2.92
2023-05-09T10:27:39.013Z,2.67
2023-05-09T10:30:16.106Z,3.00
2023-05-09T10:32:51.568Z,3.22
2023-05-09T10:35:22.565Z,3.35
2023-05-09T10:37:57.704Z,3.10
2023-05-09T10:40:29.798Z,2.92
2023-05-09T10:42:59.270Z,2.85
2023-05-09T10:45:29.611Z,3.35
2023-05-09T10:48:00.483Z,2.85
2023-05-09T10:50:30.567Z,3.00
2023-05-09T10:53:18.903Z,2.92
2023-05-09T10:55:56.792Z,2.65
2023-05-09T10:58:32.364Z,2.40
2023-05-09T11:01:07.908Z,3.00
2023-05-09T11:03:57.511Z,2.78
2023-05-09T11:06:52.760Z,3.00
2023-05-09T11:09:35.947Z,3.00
2023-05-09T11:12:17.090Z,2.75
2023-05-09T11:14:47.923Z,3.00
2023-05-09T11:17:30.731Z,3.03
2023-05-09T11:20:02.591Z,3.13
2023-05-09T11:22:33.535Z,2.55
2023-05-09T11:25:06.542Z,3.40
2023-05-09T11:27:45.560Z,3.25
2023-05-09T11:30:17.059Z,3.22
2023-05-09T11:32:49.730Z,2.55
2023-05-09T11:35:21.494Z,2.70
2023-05-09T11:37:53.221Z,2.70
2023-05-09T11:40:25.078Z,2.28
2023-05-09T11:42:58.646Z,2.30
2023-05-09T11:45:30.231Z,2.95
2023-05-09T11:48:01.511Z,2.50
2023-05-09T11:50:31.585Z,2.70
2023-05-09T11:53:01.346Z,2.70
2023-05-09T11:55:33.159Z,2.83
2023-05-09T11:58:02.966Z,2.80
2023-05-09T12:00:32.780Z,2.90
2023-05-09T12:03:04.687Z,2.55
2023-05-09T12:05:34.748Z,2.58
2023-05-09T12:08:06.523Z,3.15
2023-05-09T12:10:40.251Z,3.47
2023-05-09T12:13:13.209Z,2.58
2023-05-09T12:15:46.235Z,2.72
2023-05-09T12:18:17.551Z,2.67
2023-05-09T12:20:50.834Z,2.38
2023-05-09T12:23:21.340Z,2.80
2023-05-09T12:25:56.524Z,2.50
2023-05-09T12:28:27.427Z,2.78
2023-05-09T12:30:57.490Z,2.65
2023-05-09T12:33:27.980Z,3.00
2023-05-09T12:36:06.278Z,2.33
2023-05-09T12:38:36.520Z,2.92
2023-05-09T12:41:22.524Z,3.60
2023-05-09T12:44:02.056Z,2.45
2023-05-09T12:46:32.618Z,2.58
2023-05-09T12:49:03.383Z,2.83
2023-05-09T12:51:33.827Z,2.50
2023-05-09T12:54:06.814Z,2.83
2023-05-09T12:56:38.483Z,2.50
2023-05-09T12:59:15.454Z,2.75
2023-05-09T13:01:46.698Z,2.83
2023-05-09T13:04:17.851Z,2.80
2023-05-09T13:06:56.178Z,3.05
2023-05-09T13:09:30.164Z,2.90
2023-05-09T13:12:03.565Z,3.30
2023-05-09T13:14:33.271Z,3.13
2023-05-09T13:17:03.668Z,3.05
2023-05-09T13:19:35.365Z,2.88
2023-05-09T13:22:05.053Z,2.17
2023-05-09T13:24:34.684Z,2.85
2023-05-09T13:27:06.521Z,2.50
2023-05-09T13:29:37.344Z,2.47
2023-05-09T13:32:07.687Z,3.05
2023-05-09T13:34:37.606Z,2.67
2023-05-09T13:37:07.647Z,2.90
2023-05-09T13:39:39.387Z,2.67
2023-05-09T13:42:10.652Z,2.93
2023-05-09T13:44:40.348Z,3.10
2023-05-09T13:47:11.583Z,3.20
2023-05-09T13:49:41.281Z,2.53
2023-05-09T13:52:11.630Z,2.80
2023-05-09T13:54:41.225Z,2.80
2023-05-09T13:57:13.492Z,2.77
2023-05-09T13:59:43.312Z,2.90
2023-05-09T14:02:13.553Z,2.90
2023-05-09T14:04:44.264Z,3.30
2023-05-09T14:07:16.317Z,2.67
2023-05-09T14:09:45.841Z,2.77
2023-05-09T14:12:17.681Z,21.03
2023-05-09T14:14:47.214Z,3.27
2023-05-09T14:17:16.694Z,3.60
2023-05-09T14:19:46.103Z,3.33
2023-05-09T14:22:16.624Z,3.90
2023-05-09T14:24:46.534Z,2.80
2023-05-09T14:27:18.411Z,2.37
2023-05-09T14:29:49.947Z,3.40
2023-05-09T14:32:22.020Z,4.13
2023-05-09T14:34:51.854Z,3.80
2023-05-09T14:37:21.638Z,3.80
2023-05-09T14:39:52.493Z,3.27
2023-05-09T14:42:23.822Z,3.90
2023-05-09T14:44:53.430Z,3.73
2023-05-09T14:47:25.892Z,3.40
2023-05-09T14:49:56.437Z,3.47
2023-05-09T14:52:26.568Z,3.60
2023-05-09T14:54:57.296Z,3.07
2023-05-09T14:57:28.347Z,3.43
2023-05-09T15:00:03.180Z,3.60
2023-05-09T15:02:38.729Z,3.70
2023-05-09T15:05:09.246Z,3.30
2023-05-09T15:07:39.261Z,3.63
2023-05-09T15:10:09.907Z,2.90
2023-05-09T15:12:41.177Z,3.83
2023-05-09T15:15:21.615Z,3.47
2023-05-09T15:17:51.201Z,3.30
2023-05-09T15:20:21.445Z,3.50
2023-05-09T15:22:51.988Z,3.20
2023-05-09T15:25:22.476Z,3.43
2023-05-09T15:27:53.650Z,3.50
2023-05-09T15:30:23.123Z,4.00
2023-05-09T15:32:53.457Z,3.60
2023-05-09T15:35:23.153Z,3.10
2023-05-09T15:37:52.861Z,2.87
2023-05-09T15:40:22.280Z,2.90
2023-05-09T15:42:53.420Z,3.57
2023-05-09T15:45:23.219Z,4.23
2023-05-09T15:47:52.870Z,4.20
2023-05-09T15:50:22.758Z,3.77
2023-05-09T15:52:53.005Z,3.80
2023-05-09T15:55:23.604Z,3.37
2023-05-09T15:57:54.872Z,3.93
2023-05-09T16:00:25.274Z,3.77
2023-05-09T16:02:54.860Z,3.23
2023-05-09T16:05:24.690Z,3.87
2023-05-09T16:07:55.135Z,3.93
2023-05-09T16:10:24.770Z,3.87
2023-05-09T16:12:56.314Z,3.43
2023-05-09T16:15:26.520Z,3.60
2023-05-09T16:17:56.019Z,3.23
2023-05-09T16:20:26.056Z,3.70
2023-05-09T16:22:56.229Z,3.73
2023-05-09T16:25:27.399Z,3.50
2023-05-09T16:27:58.855Z,4.23
2023-05-09T16:30:28.968Z,3.97
2023-05-09T16:32:58.775Z,3.83
2023-05-09T16:35:28.903Z,3.27
2023-05-09T16:37:58.607Z,4.10
2023-05-09T16:40:28.810Z,3.60
2023-05-09T16:43:01.929Z,3.73
2023-05-09T16:45:32.379Z,3.70
2023-05-09T16:48:02.553Z,3.40
2023-05-09T16:50:32.669Z,2.90
2023-05-09T16:53:05.358Z,9.90
2023-05-09T16:55:35.082Z,3.70
2023-05-09T16:58:07.234Z,3.20
2023-05-09T17:00:36.723Z,3.20
2023-05-09T17:03:07.770Z,3.17
2023-05-09T17:05:37.796Z,3.27
2023-05-09T17:08:07.655Z,3.57
2023-05-09T17:10:38.136Z,3.70
2023-05-09T17:13:10.830Z,3.27
2023-05-09T17:15:40.563Z,3.50
2023-05-09T17:18:10.055Z,3.20
2023-05-09T17:20:39.646Z,3.90
2023-05-09T17:23:09.142Z,4.43
2023-05-09T17:25:38.764Z,4.30
2023-05-09T17:28:10.835Z,3.30
2023-05-09T17:30:41.251Z,3.27
2023-05-09T17:33:12.175Z,3.23
2023-05-09T17:35:41.995Z,3.40
2023-05-09T17:38:12.538Z,3.27
2023-05-09T17:40:42.227Z,4.37
2023-05-09T17:43:13.914Z,4.27
2023-05-09T17:45:43.601Z,3.50
2023-05-09T17:48:14.129Z,4.67
2023-05-09T17:50:44.237Z,4.10
2023-05-09T17:53:13.849Z,3.40
2023-05-09T17:55:44.222Z,3.70
2023-05-09T17:58:17.272Z,5.07
2023-05-09T18:00:47.185Z,3.77
2023-05-09T18:03:17.497Z,3.97
2023-05-09T18:05:47.616Z,7.80
2023-05-09T18:08:17.323Z,3.63
2023-05-09T18:10:47.660Z,4.13
2023-05-09T18:13:19.341Z,3.60
2023-05-09T18:15:49.258Z,3.60
2023-05-09T18:18:18.591Z,4.10
2023-05-09T18:20:48.284Z,4.17
2023-05-09T18:23:17.764Z,4.13
2023-05-09T18:25:47.271Z,4.40
2023-05-09T18:28:24.940Z,3.87
2023-05-09T18:30:55.454Z,3.47
2023-05-09T18:33:26.207Z,3.53
2023-05-09T18:35:56.838Z,3.97
2023-05-09T18:38:26.431Z,4.73
2023-05-09T18:40:57.067Z,4.30
2023-05-09T18:43:30.265Z,18.73
2023-05-09T18:46:06.130Z,5.17
2023-05-09T18:48:41.034Z,4.93
2023-05-09T18:51:14.836Z,5.40
2023-05-09T18:53:45.366Z,5.10
2023-05-09T18:56:19.074Z,5.40
2023-05-09T18:58:58.219Z,5.33
2023-05-09T19:01:29.474Z,5.30
2023-05-09T19:04:03.901Z,4.47
2023-05-09T19:06:35.755Z,4.03
2023-05-09T19:09:14.371Z,5.00
2023-05-09T19:11:50.529Z,5.10
2023-05-09T19:14:22.598Z,4.60
2023-05-09T19:16:53.748Z,5.30
2023-05-09T19:19:27.347Z,5.07
2023-05-09T19:21:59.974Z,4.30
2023-05-09T19:24:31.766Z,5.23
2023-05-09T19:27:02.611Z,4.93
2023-05-09T19:29:35.891Z,5.40
2023-05-09T19:32:21.453Z,5.90
2023-05-09T19:34:53.518Z,4.90
2023-05-09T19:37:25.850Z,4.23
2023-05-09T19:39:57.272Z,4.83
2023-05-09T19:42:28.173Z,4.90
2023-05-09T19:45:02.504Z,5.57
2023-05-09T19:47:37.189Z,4.50
2023-05-09T19:50:14.670Z,5.83
2023-05-09T19:52:53.249Z,5.00
2023-05-09T19:55:27.859Z,5.47
2023-05-09T19:58:06.484Z,5.00
2023-05-09T20:01:09.951Z,5.30
2023-05-09T20:03:50.242Z,5.20
2023-05-09T20:09:10.959Z,5.73
2023-05-09T20:11:41.509Z,4.97
2023-05-09T20:14:13.054Z,4.50
2023-05-09T20:16:47.890Z,5.20
2023-05-09T20:19:19.886Z,5.80
2023-05-09T20:21:51.403Z,5.60
2023-05-09T20:24:23.133Z,4.90
2023-05-09T20:27:08.690Z,4.80
2023-05-09T20:29:46.434Z,4.83
2023-05-09T20:32:26.821Z,4.50
2023-05-09T20:35:16.457Z,5.03
2023-05-09T20:38:22.225Z,5.13
2023-05-09T20:41:12.514Z,5.30
2023-05-09T20:43:46.228Z,5.90
2023-05-09T20:46:21.217Z,5.27
2023-05-09T20:48:59.772Z,4.87
2023-05-09T20:51:39.217Z,7.03
2023-05-09T20:54:09.217Z,6.30
2023-05-09T20:56:38.919Z,6.00
2023-05-09T20:59:09.352Z,5.73
2023-05-09T21:01:41.932Z,5.90
2023-05-09T21:04:18.773Z,4.93
2023-05-09T21:06:49.754Z,5.40
2023-05-09T21:09:19.796Z,6.23
2023-05-09T21:11:49.372Z,5.70
2023-05-09T21:14:18.569Z,5.40
2023-05-09T21:16:48.658Z,5.80
2023-05-09T21:19:19.529Z,5.93
2023-05-09T21:21:48.874Z,4.80
2023-05-09T21:24:18.531Z,5.80
2023-05-09T21:26:48.032Z,5.43
2023-05-09T21:29:17.753Z,10.43
2023-05-09T21:31:47.247Z,5.63
2023-05-09T21:34:19.316Z,5.30
2023-05-09T21:36:48.812Z,5.53
2023-05-09T21:39:18.432Z,5.30
2023-05-09T21:41:47.924Z,5.70
2023-05-09T21:44:17.751Z,5.63
2023-05-09T21:46:47.818Z,5.20
2023-05-09T21:49:21.608Z,5.17
2023-05-09T21:51:51.391Z,5.30
2023-05-09T21:54:21.383Z,5.27
2023-05-09T21:56:50.722Z,5.77
2023-05-09T21:59:21.329Z,5.73
2023-05-09T22:01:51.611Z,5.30
2023-05-09T22:04:22.914Z,5.20
2023-05-09T22:06:52.610Z,5.40
2023-05-09T22:09:22.155Z,5.57
2023-05-09T22:11:52.669Z,5.37
2023-05-09T22:14:22.450Z,5.40
2023-05-09T22:16:52.156Z,5.93
2023-05-09T22:19:23.317Z,6.10
2023-05-09T22:21:53.011Z,5.90
2023-05-09T22:24:22.718Z,5.30
2023-05-09T22:26:52.245Z,6.53
2023-05-09T22:29:21.935Z,6.07
2023-05-09T22:31:51.496Z,6.40
2023-05-09T22:34:23.014Z,5.70
2023-05-09T22:36:55.095Z,5.73
2023-05-09T22:39:24.784Z,6.40
2023-05-09T22:41:54.488Z,5.97
2023-05-09T22:44:24.097Z,6.93
2023-05-09T22:46:53.704Z,6.33
2023-05-09T22:49:24.842Z,7.00
2023-05-09T22:51:54.360Z,6.63
2023-05-09T22:54:24.596Z,6.27
2023-05-09T22:56:54.284Z,5.90
2023-05-09T22:59:24.067Z,5.17
2023-05-09T23:01:54.379Z,5.27
2023-05-09T23:04:25.666Z,5.70
2023-05-09T23:06:55.281Z,6.10
2023-05-09T23:09:26.613Z,5.87
2023-05-09T23:11:56.948Z,6.10
2023-05-09T23:14:26.548Z,5.33
2023-05-09T23:16:57.171Z,6.10
2023-05-09T23:19:28.524Z,7.43
2023-05-09T23:21:58.949Z,6.30
2023-05-09T23:24:28.671Z,6.20
2023-05-09T23:26:58.280Z,5.33
2023-05-09T23:29:28.070Z,6.20
2023-05-09T23:31:57.792Z,6.20
2023-05-09T23:34:28.926Z,6.53
2023-05-09T23:36:58.542Z,6.60
2023-05-09T23:39:28.250Z,6.27
2023-05-09T23:41:58.187Z,6.17
2023-05-09T23:44:28.288Z,7.57
2023-05-09T23:46:58.281Z,6.73
2023-05-09T23:49:29.961Z,5.93
2023-05-09T23:51:59.777Z,6.37
2023-05-09T23:54:29.623Z,6.53
2023-05-09T23:56:59.697Z,6.70
2023-05-09T23:59:29.295Z,6.97
